createdAt,value
2022-12-15T00:02:44.170Z,-4.88
2022-12-15T00:05:29.545Z,-4.96
2022-12-15T00:08:14.908Z,-4.99
2022-12-15T00:11:00.097Z,-5.03
2022-12-15T00:13:45.533Z,-5.03
2022-12-15T00:16:32.027Z,-5.06
2022-12-15T00:19:17.308Z,-5.08
2022-12-15T00:22:02.693Z,-5.11
2022-12-15T00:24:49.779Z,-5.11
2022-12-15T00:27:35.481Z,-5.12
2022-12-15T00:30:20.846Z,-5.11
2022-12-15T00:33:07.423Z,-5.07
2022-12-15T00:35:52.475Z,-5.02
2022-12-15T00:38:37.811Z,-4.97
2022-12-15T00:41:06.234Z,-4.94
2022-12-15T00:43:36.022Z,-4.92
2022-12-15T00:46:22.966Z,-4.93
2022-12-15T00:48:51.985Z,-4.95
2022-12-15T00:51:19.256Z,-4.99
2022-12-15T00:54:04.948Z,-5.03
2022-12-15T00:56:50.904Z,-5.09
2022-12-15T00:59:36.048Z,-5.11
2022-12-15T01:02:22.483Z,-5.17
2022-12-15T01:05:09.078Z,-5.22
2022-12-15T01:07:54.436Z,-5.27
2022-12-15T01:10:39.630Z,-5.29
2022-12-15T01:13:25.168Z,-5.28
2022-12-15T01:16:10.820Z,-5.27
2022-12-15T01:18:55.979Z,-5.28
2022-12-15T01:21:25.488Z,-5.27
2022-12-15T01:23:53.862Z,-5.25
2022-12-15T01:26:21.477Z,-5.22
2022-12-15T01:28:49.112Z,-5.17
2022-12-15T01:31:16.882Z,-5.08
2022-12-15T01:33:44.492Z,-4.97
2022-12-15T01:36:12.372Z,-4.87
2022-12-15T01:38:41.313Z,-4.76
2022-12-15T01:41:11.037Z,-4.69
2022-12-15T01:43:41.037Z,-4.62
2022-12-15T01:46:10.420Z,-4.52
2022-12-15T01:48:42.589Z,-4.42
2022-12-15T01:51:15.951Z,-4.32
2022-12-15T01:53:51.579Z,-4.22
2022-12-15T01:56:21.284Z,-4.12
2022-12-15T01:58:52.205Z,-4.01
2022-12-15T02:01:19.909Z,-3.93
2022-12-15T02:03:48.415Z,-3.85
2022-12-15T02:06:18.025Z,-3.78
2022-12-15T02:08:48.415Z,-3.71
2022-12-15T02:11:47.814Z,-3.64
2022-12-15T02:14:25.982Z,-3.56
2022-12-15T02:17:05.691Z,-3.48
2022-12-15T02:20:09.730Z,-3.41
2022-12-15T02:23:01.555Z,-3.36
2022-12-15T02:25:55.844Z,-3.30
2022-12-15T02:28:40.196Z,-3.29
2022-12-15T02:31:32.384Z,-3.31
2022-12-15T02:34:07.296Z,-3.30
2022-12-15T02:36:39.284Z,-3.29
2022-12-15T02:39:07.266Z,-3.32
2022-12-15T02:41:40.663Z,-3.41
2022-12-15T02:44:12.268Z,-3.47
2022-12-15T02:46:55.505Z,-3.56
2022-12-15T02:49:36.388Z,-3.70
2022-12-15T02:52:14.860Z,-3.83
2022-12-15T02:54:58.947Z,-3.95
2022-12-15T02:57:35.399Z,-3.97
2022-12-15T03:00:06.900Z,-3.94
2022-12-15T03:02:38.945Z,-3.87
2022-12-15T03:05:07.590Z,-3.81
2022-12-15T03:07:35.196Z,-3.73
2022-12-15T03:10:06.628Z,-3.66
2022-12-15T03:12:34.279Z,-3.58
2022-12-15T03:15:01.918Z,-3.50
2022-12-15T03:17:29.522Z,-3.42
2022-12-15T03:19:58.470Z,-3.32
2022-12-15T03:22:26.446Z,-3.25
2022-12-15T03:24:54.081Z,-3.17
2022-12-15T03:27:21.662Z,-3.11
2022-12-15T03:29:49.235Z,-3.07
2022-12-15T03:32:16.908Z,-3.06
2022-12-15T03:34:45.227Z,-3.05
2022-12-15T03:37:14.246Z,-3.08
2022-12-15T03:39:41.837Z,-3.13
2022-12-15T03:42:09.491Z,-3.23
2022-12-15T03:44:37.084Z,-3.33
2022-12-15T03:47:04.695Z,-3.43
2022-12-15T03:49:32.342Z,-3.56
2022-12-15T03:51:59.930Z,-3.67
2022-12-15T03:54:28.915Z,-3.79
2022-12-15T03:56:56.494Z,-3.88
2022-12-15T03:59:24.144Z,-3.99
2022-12-15T04:01:51.830Z,-4.09
2022-12-15T04:04:19.462Z,-4.18
2022-12-15T04:06:47.079Z,-4.24
2022-12-15T04:09:14.671Z,-4.32
2022-12-15T04:11:44.270Z,-4.40
2022-12-15T04:14:11.914Z,-4.48
2022-12-15T04:16:39.540Z,-4.58
2022-12-15T04:19:24.591Z,-4.68
2022-12-15T04:21:52.183Z,-4.77
2022-12-15T04:24:37.367Z,-4.86
2022-12-15T04:27:24.130Z,-4.97
2022-12-15T04:30:09.499Z,-5.08
2022-12-15T04:32:54.921Z,-5.16
2022-12-15T04:35:40.018Z,-5.27
2022-12-15T04:38:25.369Z,-5.36
2022-12-15T04:41:10.803Z,-5.42
2022-12-15T04:43:58.464Z,-5.49
2022-12-15T04:46:43.652Z,-5.54
2022-12-15T04:49:28.857Z,-5.58
2022-12-15T04:52:14.047Z,-5.63
2022-12-15T04:54:59.230Z,-5.67
2022-12-15T04:57:44.496Z,-5.70
2022-12-15T05:00:31.850Z,-5.73
2022-12-15T05:03:23.194Z,-5.79
2022-12-15T05:06:08.319Z,-5.83
2022-12-15T05:08:53.499Z,-5.87
2022-12-15T05:11:38.908Z,-5.90
2022-12-15T05:14:24.203Z,-5.94
2022-12-15T05:17:10.472Z,-5.98
2022-12-15T05:19:55.750Z,-6.03
2022-12-15T05:22:41.151Z,-6.08
2022-12-15T05:25:27.151Z,-6.11
2022-12-15T05:28:12.436Z,-6.13
2022-12-15T05:30:57.747Z,-6.13
2022-12-15T05:33:26.835Z,-6.15
2022-12-15T05:35:57.215Z,-6.17
2022-12-15T05:38:24.835Z,-6.15
2022-12-15T05:40:52.430Z,-6.14
2022-12-15T05:43:24.759Z,-6.15
2022-12-15T05:45:54.189Z,-6.13
2022-12-15T05:48:21.817Z,-6.11
2022-12-15T05:50:50.753Z,-6.11
2022-12-15T05:53:18.323Z,-6.11
2022-12-15T05:55:45.957Z,-6.11
2022-12-15T05:58:13.582Z,-6.11
2022-12-15T06:00:41.189Z,-6.12
2022-12-15T06:03:08.812Z,-6.15
2022-12-15T06:05:36.482Z,-6.17
2022-12-15T06:08:05.881Z,-6.19
2022-12-15T06:10:33.511Z,-6.20
2022-12-15T06:13:01.800Z,-6.23
2022-12-15T06:15:29.520Z,-6.32
2022-12-15T06:17:57.103Z,-6.39
2022-12-15T06:20:24.696Z,-6.45
2022-12-15T06:22:52.364Z,-6.49
2022-12-15T06:25:21.276Z,-6.52
2022-12-15T06:27:48.829Z,-6.53
2022-12-15T06:30:16.469Z,-6.49
2022-12-15T06:32:44.039Z,-6.44
2022-12-15T06:35:11.615Z,-6.36
2022-12-15T06:37:39.219Z,-6.26
2022-12-15T06:40:08.187Z,-6.15
2022-12-15T06:42:37.145Z,-6.03
2022-12-15T06:45:05.418Z,-5.92
2022-12-15T06:47:33.040Z,-5.81
2022-12-15T06:50:00.641Z,-5.69
2022-12-15T06:52:28.219Z,-5.60
2022-12-15T06:54:55.810Z,-5.48
2022-12-15T06:57:23.369Z,-5.34
2022-12-15T06:59:52.339Z,-5.24
2022-12-15T07:02:25.192Z,-5.14
2022-12-15T07:04:56.257Z,-5.06
2022-12-15T07:07:23.925Z,-5.00
2022-12-15T07:09:51.556Z,-4.97
2022-12-15T07:12:19.134Z,-4.96
2022-12-15T07:14:53.024Z,-4.94
2022-12-15T07:17:22.423Z,-4.86
2022-12-15T07:19:50.003Z,-4.84
2022-12-15T07:22:17.611Z,-4.77
2022-12-15T07:24:46.000Z,-4.70
2022-12-15T07:27:13.587Z,-4.66
2022-12-15T07:29:41.303Z,-4.59
2022-12-15T07:32:08.886Z,-4.56
2022-12-15T07:34:37.811Z,-4.50
2022-12-15T07:37:05.419Z,-4.44
2022-12-15T07:39:33.131Z,-4.40
2022-12-15T07:42:01.215Z,-4.36
2022-12-15T07:44:29.970Z,-4.31
2022-12-15T07:46:57.568Z,-4.24
2022-12-15T07:49:25.166Z,-4.17
2022-12-15T07:51:58.267Z,-4.10
2022-12-15T07:54:26.500Z,-4.02
2022-12-15T07:56:54.079Z,-4.05
2022-12-15T07:59:21.667Z,-3.99
2022-12-15T08:01:49.559Z,-3.95
2022-12-15T08:04:17.421Z,-3.91
2022-12-15T08:06:45.065Z,-3.87
2022-12-15T08:09:13.997Z,-3.81
2022-12-15T08:11:41.538Z,-3.75
2022-12-15T08:14:15.044Z,-3.69
2022-12-15T08:16:45.318Z,-3.65
2022-12-15T08:19:15.151Z,-3.61
2022-12-15T08:21:44.052Z,-3.52
2022-12-15T08:24:11.669Z,-3.42
2022-12-15T08:26:41.830Z,-3.37
2022-12-15T08:29:48.765Z,-3.27
2022-12-15T08:32:00.306Z,-3.23
2022-12-15T08:34:28.037Z,-3.12
2022-12-15T08:36:55.579Z,-3.02
2022-12-15T08:39:23.169Z,-2.92
2022-12-15T08:41:52.176Z,-2.87
2022-12-15T08:44:19.847Z,-2.80
2022-12-15T08:46:47.374Z,-2.73
2022-12-15T08:49:21.203Z,-2.63
2022-12-15T08:51:50.379Z,-2.55
2022-12-15T08:54:19.116Z,-2.50
2022-12-15T08:56:46.779Z,-2.47
2022-12-15T08:59:15.778Z,-2.47
2022-12-15T09:01:43.551Z,-2.46
2022-12-15T09:04:11.378Z,-2.39
2022-12-15T09:06:38.983Z,-2.39
2022-12-15T09:09:08.780Z,-2.28
2022-12-15T09:11:36.800Z,-2.18
2022-12-15T09:14:04.522Z,-2.07
2022-12-15T09:16:33.520Z,-2.00
2022-12-15T09:19:01.748Z,-1.95
2022-12-15T09:21:30.961Z,-2.10
2022-12-15T09:24:01.565Z,-2.07
2022-12-15T09:26:30.749Z,-2.01
2022-12-15T09:28:58.720Z,-2.01
2022-12-15T09:31:29.247Z,-1.99
2022-12-15T09:34:00.008Z,-1.96
2022-12-15T09:36:28.353Z,-1.85
2022-12-15T09:38:56.097Z,-1.77
2022-12-15T09:41:27.066Z,-1.67
2022-12-15T09:43:58.421Z,-1.65
2022-12-15T09:46:40.407Z,-1.57
2022-12-15T09:49:14.597Z,-1.48
2022-12-15T09:51:49.044Z,-1.48
2022-12-15T09:54:16.689Z,-1.54
2022-12-15T09:56:50.331Z,-1.49
2022-12-15T09:59:30.651Z,-1.42
2022-12-15T10:02:19.694Z,-1.35
2022-12-15T10:04:57.647Z,-1.28
2022-12-15T10:07:32.080Z,-1.16
2022-12-15T10:09:59.849Z,-1.01
2022-12-15T10:12:33.222Z,-0.83
2022-12-15T10:15:14.044Z,-0.68
2022-12-15T10:17:46.424Z,-0.68
2022-12-15T10:20:21.267Z,-0.62
2022-12-15T10:22:50.442Z,-0.61
2022-12-15T10:25:27.484Z,-0.61
2022-12-15T10:28:18.100Z,-0.56
2022-12-15T10:30:52.666Z,-0.56
2022-12-15T10:33:24.076Z,-0.44
2022-12-15T10:35:54.753Z,-0.33
2022-12-15T10:38:26.304Z,-0.21
2022-12-15T10:40:56.875Z,-0.16
2022-12-15T10:43:31.743Z,-0.09
2022-12-15T10:46:13.399Z,-0.09
2022-12-15T10:48:41.561Z,-0.09
2022-12-15T10:51:20.052Z,-0.11
2022-12-15T10:56:50.206Z,-0.06
2022-12-15T10:59:26.170Z,-0.08
2022-12-15T11:01:53.949Z,-0.04
2022-12-15T11:04:28.700Z,0.01
2022-12-15T11:07:02.410Z,-0.02
2022-12-15T11:09:34.709Z,0.10
2022-12-15T11:12:20.134Z,0.34
2022-12-15T11:14:49.357Z,0.48
2022-12-15T11:17:20.506Z,0.71
2022-12-15T11:20:01.965Z,0.91
2022-12-15T11:22:42.571Z,0.87
2022-12-15T11:25:21.918Z,0.93
2022-12-15T11:27:51.453Z,0.98
2022-12-15T11:30:22.163Z,1.13
2022-12-15T11:32:53.516Z,1.19
2022-12-15T11:35:28.545Z,1.19
2022-12-15T11:38:06.576Z,1.22
2022-12-15T11:40:40.724Z,1.10
2022-12-15T11:43:44.092Z,1.13
2022-12-15T11:46:23.752Z,1.13
2022-12-15T11:49:20.392Z,1.05
2022-12-15T11:51:57.754Z,1.03
2022-12-15T11:54:31.074Z,1.10
2022-12-15T11:57:08.452Z,1.13
2022-12-15T12:00:02.943Z,1.23
2022-12-15T12:02:43.665Z,1.35
2022-12-15T12:05:27.833Z,1.38
2022-12-15T12:08:07.484Z,1.36
2022-12-15T12:10:43.893Z,1.37
2022-12-15T12:13:23.576Z,1.31
2022-12-15T12:15:58.567Z,1.26
2022-12-15T12:18:32.483Z,1.29
2022-12-15T12:21:06.206Z,1.32
2022-12-15T12:23:39.600Z,1.21
2022-12-15T12:26:14.382Z,1.20
2022-12-15T12:28:48.574Z,1.16
2022-12-15T12:31:27.329Z,1.08
2022-12-15T12:33:59.717Z,0.93
2022-12-15T12:36:27.276Z,0.85
2022-12-15T12:38:56.686Z,0.79
2022-12-15T12:41:36.438Z,0.72
2022-12-15T12:44:12.216Z,0.69
2022-12-15T12:46:46.787Z,0.71
2022-12-15T12:49:26.799Z,0.70
2022-12-15T12:51:58.522Z,0.72
2022-12-15T12:54:45.237Z,0.71
2022-12-15T12:57:33.875Z,0.76
2022-12-15T13:00:03.608Z,0.83
2022-12-15T13:02:46.345Z,0.89
2022-12-15T13:05:31.266Z,0.94
2022-12-15T13:08:40.640Z,0.99
2022-12-15T13:12:00.804Z,0.98
2022-12-15T13:14:42.203Z,1.03
2022-12-15T13:17:26.424Z,1.07
2022-12-15T13:20:29.277Z,1.04
2022-12-15T13:23:13.063Z,1.04
2022-12-15T13:25:42.886Z,0.95
2022-12-15T13:28:31.029Z,0.89
2022-12-15T13:31:33.199Z,0.80
2022-12-15T13:34:28.574Z,0.74
2022-12-15T13:37:01.196Z,0.64
2022-12-15T13:39:58.813Z,0.50
2022-12-15T13:45:36.290Z,0.28
2022-12-15T13:48:16.650Z,0.24
2022-12-15T13:53:42.877Z,0.13
2022-12-15T13:56:26.033Z,0.09
2022-12-15T13:59:02.357Z,0.06
2022-12-15T14:01:33.026Z,0.04
2022-12-15T14:04:07.750Z,0.02
2022-12-15T14:06:38.905Z,-0.02
2022-12-15T14:09:07.795Z,-0.11
2022-12-15T14:11:52.678Z,-0.15
2022-12-15T14:14:24.338Z,-0.25
2022-12-15T14:16:59.410Z,-0.25
2022-12-15T14:19:38.795Z,-0.28
2022-12-15T14:22:27.190Z,-0.32
2022-12-15T14:25:01.508Z,-0.30
2022-12-15T14:27:31.889Z,-0.32
2022-12-15T14:30:29.226Z,-0.43
2022-12-15T14:33:01.448Z,-0.49
2022-12-15T14:35:36.054Z,-0.51
2022-12-15T14:38:07.849Z,-0.56
2022-12-15T14:40:37.502Z,-0.56
2022-12-15T14:43:05.943Z,-0.57
2022-12-15T14:45:33.802Z,-0.60
2022-12-15T14:50:52.640Z,-0.68
2022-12-15T14:53:22.725Z,-0.69
2022-12-15T14:55:51.470Z,-0.70
2022-12-15T14:58:32.209Z,-0.70
2022-12-15T15:01:00.890Z,-0.72
2022-12-15T15:03:07.531Z,0.46
2022-12-15T15:03:09.925Z,-0.10
2022-12-15T15:03:13.257Z,0.21
2022-12-15T15:03:37.081Z,-0.75
2022-12-15T15:06:15.548Z,-0.78
2022-12-15T15:08:46.648Z,-0.78
2022-12-15T15:11:26.784Z,-0.76
2022-12-15T15:13:56.826Z,-0.77
2022-12-15T15:16:24.691Z,-0.74
2022-12-15T15:18:55.952Z,-0.73
2022-12-15T15:21:27.869Z,-0.72
2022-12-15T15:24:00.368Z,-0.69
2022-12-15T15:26:28.224Z,-0.68
2022-12-15T15:28:56.228Z,-0.65
2022-12-15T15:31:33.878Z,-0.64
2022-12-15T15:34:05.183Z,-0.63
2022-12-15T15:36:36.728Z,-0.62
2022-12-15T15:39:11.237Z,-0.61
2022-12-15T15:41:39.124Z,-0.59
2022-12-15T15:44:13.501Z,-0.60
2022-12-15T15:46:47.352Z,-0.58
2022-12-15T15:49:17.892Z,-0.59
2022-12-15T15:51:46.892Z,-0.56
2022-12-15T15:54:17.635Z,-0.54
2022-12-15T15:56:45.228Z,-0.57
2022-12-15T15:59:14.563Z,-0.58
2022-12-15T16:01:42.257Z,-0.58
2022-12-15T16:04:10.059Z,-0.56
2022-12-15T16:06:42.090Z,-0.56
2022-12-15T16:09:16.696Z,-0.55
2022-12-15T16:11:45.892Z,-0.53
2022-12-15T16:14:14.561Z,-0.54
2022-12-15T16:16:42.658Z,-0.55
2022-12-15T16:19:11.911Z,-0.53
2022-12-15T16:21:41.547Z,-0.52
2022-12-15T16:24:14.364Z,-0.50
2022-12-15T16:26:47.941Z,-0.48
2022-12-15T16:29:16.558Z,-0.45
2022-12-15T16:31:45.420Z,-0.45
2022-12-15T16:34:13.385Z,-0.43
2022-12-15T16:36:41.887Z,-0.43
2022-12-15T16:39:24.556Z,-0.44
2022-12-15T16:41:55.215Z,-0.45
2022-12-15T16:44:23.095Z,-0.49
2022-12-15T16:46:51.305Z,-0.52
2022-12-15T16:49:18.981Z,-0.51
2022-12-15T16:51:48.963Z,-0.54
2022-12-15T16:54:20.769Z,-0.51
2022-12-15T16:56:48.454Z,-0.52
2022-12-15T16:59:35.036Z,-0.51
2022-12-15T17:02:18.399Z,-0.56
2022-12-15T17:04:46.084Z,-0.57
2022-12-15T17:07:19.938Z,-0.58
2022-12-15T17:09:48.450Z,-0.59
2022-12-15T17:12:17.853Z,-0.66
2022-12-15T17:14:47.068Z,-0.65
2022-12-15T17:17:15.732Z,-0.66
2022-12-15T17:19:57.935Z,-0.69
2022-12-15T17:22:32.662Z,-0.75
2022-12-15T17:25:00.302Z,-0.74
2022-12-15T17:27:30.092Z,-0.73
2022-12-15T17:30:00.484Z,-0.72
2022-12-15T17:32:28.117Z,-0.76
2022-12-15T17:34:55.812Z,-0.74
2022-12-15T17:37:26.194Z,-0.75
2022-12-15T17:39:56.825Z,-0.79
2022-12-15T17:42:24.400Z,-0.79
2022-12-15T17:44:52.060Z,-0.80
2022-12-15T17:47:21.025Z,-0.80
2022-12-15T17:49:48.609Z,-0.81
2022-12-15T17:52:25.348Z,-0.79
2022-12-15T17:54:53.725Z,-0.80
2022-12-15T17:57:21.549Z,-0.79
2022-12-15T17:59:49.320Z,-0.78
2022-12-15T18:02:17.152Z,-0.79
2022-12-15T18:04:46.675Z,-0.75
2022-12-15T18:07:17.687Z,-0.75
2022-12-15T18:09:45.268Z,-0.73
2022-12-15T18:12:19.640Z,-0.69
2022-12-15T18:14:47.722Z,-0.69
2022-12-15T18:17:15.393Z,-0.67
2022-12-15T18:19:42.932Z,-0.66
2022-12-15T18:22:15.348Z,-0.66
2022-12-15T18:24:43.181Z,-0.65
2022-12-15T18:27:20.135Z,-0.64
2022-12-15T18:29:47.700Z,-0.63
2022-12-15T18:32:17.029Z,-0.63
2022-12-15T18:34:45.013Z,-0.67
2022-12-15T18:37:16.517Z,-0.65
2022-12-15T18:39:44.251Z,-0.64
2022-12-15T18:42:15.392Z,-0.66
2022-12-15T18:44:46.161Z,-0.63
2022-12-15T18:47:17.702Z,-0.61
2022-12-15T18:49:45.505Z,-0.60
2022-12-15T18:52:18.471Z,-0.56
2022-12-15T18:54:47.360Z,-0.53
2022-12-15T18:57:28.181Z,-0.51
2022-12-15T18:59:58.729Z,-0.48
2022-12-15T19:02:26.451Z,-0.47
2022-12-15T19:04:54.084Z,-0.49
2022-12-15T19:07:23.027Z,-0.49
2022-12-15T19:09:50.860Z,-0.46
2022-12-15T19:12:18.639Z,-0.43
2022-12-15T19:14:47.333Z,-0.43
2022-12-15T19:17:34.489Z,-0.44
2022-12-15T19:20:20.153Z,-0.46
2022-12-15T19:22:49.889Z,-0.42
2022-12-15T19:25:25.372Z,-0.38
2022-12-15T19:27:58.294Z,-0.36
2022-12-15T19:30:28.320Z,-0.32
2022-12-15T19:32:56.392Z,-0.29
2022-12-15T19:35:24.714Z,-0.26
2022-12-15T19:37:55.444Z,-0.26
2022-12-15T19:40:27.353Z,-0.24
2022-12-15T19:42:55.677Z,-0.22
2022-12-15T19:45:26.081Z,-0.26
2022-12-15T19:47:54.032Z,-0.28
2022-12-15T19:50:23.412Z,-0.29
2022-12-15T19:52:57.494Z,-0.26
2022-12-15T19:55:29.327Z,-0.26
2022-12-15T19:57:57.199Z,-0.23
2022-12-15T20:00:25.150Z,-0.24
2022-12-15T20:02:54.943Z,-0.23
2022-12-15T20:05:23.578Z,-0.20
2022-12-15T20:07:52.950Z,-0.15
2022-12-15T20:10:29.537Z,-0.16
2022-12-15T20:12:59.745Z,-0.10
2022-12-15T20:15:27.379Z,-0.08
2022-12-15T20:17:56.645Z,-0.07
2022-12-15T20:20:26.776Z,-0.04
2022-12-15T20:22:57.413Z,-0.01
2022-12-15T20:25:29.587Z,-0.01
2022-12-15T20:27:57.632Z,0.04
2022-12-15T20:30:27.082Z,0.07
2022-12-15T20:32:54.974Z,0.06
2022-12-15T20:35:23.695Z,0.06
2022-12-15T20:37:52.493Z,0.06
2022-12-15T20:40:23.004Z,0.10
2022-12-15T20:42:53.558Z,0.14
2022-12-15T20:45:23.754Z,0.16
2022-12-15T20:47:53.406Z,0.18
2022-12-15T20:50:27.860Z,0.16
2022-12-15T20:52:55.569Z,0.21
2022-12-15T20:55:23.379Z,0.20
2022-12-15T20:57:52.288Z,0.22
2022-12-15T21:00:20.011Z,0.21
2022-12-15T21:02:47.939Z,0.25
2022-12-15T21:05:19.996Z,0.21
2022-12-15T21:07:48.644Z,0.22
2022-12-15T21:10:18.354Z,0.21
2022-12-15T21:12:50.212Z,0.24
2022-12-15T21:15:21.710Z,0.26
2022-12-15T21:17:57.251Z,0.28
2022-12-15T21:20:39.597Z,0.25
2022-12-15T21:23:07.353Z,0.24
2022-12-15T21:25:35.377Z,0.25
2022-12-15T21:28:02.936Z,0.25
2022-12-15T21:30:31.910Z,0.23
2022-12-15T21:32:59.520Z,0.23
2022-12-15T21:35:30.285Z,0.22
2022-12-15T21:37:59.733Z,0.24
2022-12-15T21:40:29.400Z,0.25
2022-12-15T21:42:57.913Z,0.25
2022-12-15T21:45:27.117Z,0.27
2022-12-15T21:48:13.612Z,0.24
2022-12-15T21:50:44.530Z,0.25
2022-12-15T21:53:16.737Z,0.24
2022-12-15T21:55:46.785Z,0.26
2022-12-15T21:58:19.569Z,0.26
2022-12-15T22:00:47.709Z,0.29
2022-12-15T22:03:16.698Z,0.28
2022-12-15T22:05:44.244Z,0.31
2022-12-15T22:08:15.720Z,0.33
2022-12-15T22:10:45.195Z,0.32
2022-12-15T22:13:17.592Z,0.33
2022-12-15T22:15:45.992Z,0.35
2022-12-15T22:18:19.457Z,0.36
2022-12-15T22:20:50.297Z,0.37
2022-12-15T22:23:18.882Z,0.38
2022-12-15T22:25:47.044Z,0.36
2022-12-15T22:28:21.625Z,0.38
2022-12-15T22:30:50.294Z,0.41
2022-12-15T22:33:21.815Z,0.39
2022-12-15T22:35:52.608Z,0.42
2022-12-15T22:38:24.152Z,0.41
2022-12-15T22:40:55.532Z,0.41
2022-12-15T22:43:26.789Z,0.39
2022-12-15T22:45:56.451Z,0.43
2022-12-15T22:48:34.094Z,0.40
2022-12-15T22:51:04.580Z,0.43
2022-12-15T22:53:34.352Z,0.39
2022-12-15T22:56:05.946Z,0.38
2022-12-15T22:58:37.111Z,0.36
2022-12-15T23:01:06.849Z,0.36
2022-12-15T23:03:35.496Z,0.32
2022-12-15T23:06:05.592Z,0.34
2022-12-15T23:08:33.687Z,0.31
2022-12-15T23:11:18.623Z,0.29
2022-12-15T23:13:46.343Z,0.21
2022-12-15T23:16:22.187Z,0.24
2022-12-15T23:18:51.665Z,0.24
2022-12-15T23:21:21.831Z,0.20
2022-12-15T23:23:49.884Z,0.18
2022-12-15T23:26:19.857Z,0.17
2022-12-15T23:28:47.419Z,0.16
2022-12-15T23:31:15.048Z,0.15
2022-12-15T23:33:43.101Z,0.11
2022-12-15T23:36:12.106Z,0.05
2022-12-15T23:38:41.045Z,0.08
2022-12-15T23:41:08.605Z,0.07
2022-12-15T23:43:36.281Z,0.05
2022-12-15T23:46:06.225Z,0.06
2022-12-15T23:48:35.753Z,0.01
2022-12-15T23:51:05.318Z,0.00
2022-12-15T23:53:33.314Z,-0.04
2022-12-15T23:56:08.192Z,0.02
2022-12-15T23:58:35.777Z,-0.01
